Time;durP1;ratioP1;P1;durP2;ratioP2;P2;SDS_P1;SDS_P2;PMS_P1;PMS_P2;Temp;Humidity;BMP_temperature;BMP_pressure;BME280_temperature;BME280_humidity;BME280_pressure;Samples;Min_cycle;Max_cycle;Signal;HPM_P1;HPM_P2
2022/04/18 00:02:06;;;;;;;7.23;6.50;;;7.30;1.00;;;;;;5084494;28;20493;-83
2022/04/18 00:04:33;;;;;;;7.53;6.43;;;7.30;1.00;;;;;;5083112;28;20441;-83
2022/04/18 00:06:59;;;;;;;9.07;7.50;;;7.40;1.00;;;;;;5083535;28;20442;-84
2022/04/18 00:09:26;;;;;;;10.10;7.63;;;7.30;1.00;;;;;;5085214;28;20426;-83
2022/04/18 00:11:53;;;;;;;8.03;7.07;;;7.20;1.00;;;;;;5083725;28;20418;-83
2022/04/18 00:14:19;;;;;;;8.43;6.90;;;7.20;5.20;;;;;;5082368;28;20464;-82
2022/04/18 00:16:47;;;;;;;11.30;7.80;;;7.20;63.00;;;;;;5084422;28;21001;-84
2022/04/18 00:19:14;;;;;;;14.25;9.30;;;7.10;99.90;;;;;;5083296;28;20811;-83
2022/04/18 00:21:41;;;;;;;11.00;8.20;;;7.10;99.90;;;;;;5083320;28;20208;-83
2022/04/18 00:24:08;;;;;;;11.67;8.90;;;7.10;99.90;;;;;;5084001;28;20434;-83
2022/04/18 00:26:37;;;;;;;9.90;7.13;;;7.20;99.90;;;;;;5096778;28;20482;-83
2022/04/18 00:29:03;;;;;;;11.20;8.57;;;7.20;99.90;;;;;;5098906;28;20443;-83
2022/04/18 00:31:30;;;;;;;12.93;8.52;;;7.20;99.90;;;;;;5087503;28;20500;-84
2022/04/18 00:33:58;;;;;;;10.52;8.35;;;7.10;99.90;;;;;;5087669;28;20215;-82
2022/04/18 00:36:24;;;;;;;11.10;8.70;;;7.20;99.90;;;;;;5093409;28;20227;-82
2022/04/18 00:38:51;;;;;;;10.33;8.20;;;7.10;99.90;;;;;;5092528;28;20213;-83
2022/04/18 00:41:18;;;;;;;9.43;8.17;;;7.00;99.90;;;;;;5078271;28;20892;-83
2022/04/18 00:43:46;;;;;;;10.68;8.00;;;7.00;99.90;;;;;;5078890;28;20459;-84
2022/04/18 00:46:16;;;;;;;11.87;8.97;;;6.90;99.90;;;;;;5081941;28;20299;-83
2022/04/18 00:48:43;;;;;;;12.00;8.17;;;6.80;1.00;;;;;;5083722;28;20439;-82
2022/04/18 00:51:13;;;;;;;11.63;8.65;;;6.90;1.00;;;;;;5089672;28;20515;-82
2022/04/18 00:53:41;;;;;;;14.00;9.13;;;6.90;1.00;;;;;;5085518;28;20338;-84
2022/04/18 00:56:10;;;;;;;10.65;7.55;;;6.80;99.90;;;;;;5083254;28;20498;-83
2022/04/18 00:58:39;;;;;;;11.50;7.90;;;6.80;1.00;;;;;;5084775;28;20213;-83
2022/04/18 01:01:05;;;;;;;11.00;8.60;;;6.60;99.90;;;;;;5083888;28;20478;-84
2022/04/18 01:03:32;;;;;;;9.63;7.87;;;6.80;99.90;;;;;;5083396;28;20447;-82
2022/04/18 01:06:00;;;;;;;9.87;8.70;;;6.80;99.90;;;;;;5083026;28;20466;-83
2022/04/18 01:08:29;;;;;;;11.88;9.23;;;6.80;1.00;;;;;;5088897;28;20501;-82
2022/04/18 01:10:56;;;;;;;11.02;9.82;;;7.00;1.00;;;;;;5096380;28;20187;-83
2022/04/18 01:13:23;;;;;;;14.30;10.35;;;6.70;99.90;;;;;;5095299;28;20260;-83
2022/04/18 01:15:53;;;;;;;12.15;8.55;;;6.70;1.00;;;;;;5095536;28;20232;-82
2022/04/18 01:18:19;;;;;;;11.70;8.80;;;6.70;1.00;;;;;;5088862;28;20246;-83
2022/04/18 01:20:48;;;;;;;10.30;8.60;;;6.60;99.90;;;;;;5085417;28;20208;-84
2022/04/18 01:23:17;;;;;;;10.93;8.88;;;6.50;1.00;;;;;;5086104;28;20208;-84
2022/04/18 01:31:13;;;;;;;10.65;8.52;;;6.60;99.90;;;;;;5083520;28;20192;-83
2022/04/18 01:33:39;;;;;;;13.27;9.80;;;6.60;1.00;;;;;;5084680;28;20307;-83
2022/04/18 01:36:08;;;;;;;12.93;10.10;;;6.50;1.00;;;;;;5082620;28;20238;-83
2022/04/18 01:38:35;;;;;;;9.95;8.82;;;6.60;1.00;;;;;;5082433;28;20232;-83
2022/04/18 01:41:01;;;;;;;17.27;11.05;;;6.60;1.00;;;;;;5082337;28;20201;-83
2022/04/18 01:43:28;;;;;;;14.30;11.52;;;6.60;1.00;;;;;;5082993;28;20235;-83
2022/04/18 01:45:54;;;;;;;10.88;8.75;;;6.60;1.00;;;;;;5083555;28;20652;-83
2022/04/18 01:48:21;;;;;;;15.18;10.63;;;6.50;58.60;;;;;;5080402;28;20200;-84
2022/04/18 01:50:47;;;;;;;12.55;9.93;;;6.50;92.70;;;;;;5083648;28;20224;-83
2022/04/18 01:53:15;;;;;;;13.52;11.85;;;6.50;45.20;;;;;;5082311;28;20203;-83
2022/04/18 01:55:42;;;;;;;16.13;12.05;;;6.60;99.90;;;;;;5081088;28;20755;-83
2022/04/18 01:58:08;;;;;;;16.73;12.57;;;6.40;99.90;;;;;;5080798;28;20215;-83
2022/04/18 02:00:35;;;;;;;15.48;11.68;;;6.40;74.00;;;;;;5081520;28;20209;-83
2022/04/18 02:03:02;;;;;;;13.27;11.13;;;6.40;99.90;;;;;;5082151;28;20204;-82
2022/04/18 02:05:29;;;;;;;19.23;12.55;;;6.40;99.90;;;;;;5090079;28;20428;-83
2022/04/18 02:07:55;;;;;;;14.77;11.93;;;6.40;97.30;;;;;;5084048;28;20203;-84
2022/04/18 02:10:23;;;;;;;13.18;11.55;;;6.40;99.90;;;;;;5083858;28;20442;-84
2022/04/18 02:12:50;;;;;;;16.20;10.68;;;6.40;99.90;;;;;;5086631;28;20203;-83
2022/04/18 02:15:17;;;;;;;18.38;12.52;;;6.40;45.80;;;;;;5094806;28;20335;-83
2022/04/18 02:17:43;;;;;;;18.13;11.88;;;6.40;48.40;;;;;;5094028;28;20212;-82
2022/04/18 02:20:11;;;;;;;14.80;11.65;;;6.40;12.20;;;;;;5094662;28;20206;-83
2022/04/18 02:22:37;;;;;;;14.85;11.10;;;6.40;32.20;;;;;;5094483;28;20192;-82
2022/04/18 02:25:05;;;;;;;16.55;11.27;;;6.40;1.00;;;;;;5095659;28;20202;-82
2022/04/18 02:27:33;;;;;;;17.13;12.30;;;6.40;13.40;;;;;;5096502;28;20211;-81
2022/04/18 02:30:00;;;;;;;14.75;12.32;;;6.40;1.00;;;;;;5096297;28;20214;-81
2022/04/18 02:35:11;;;;;;;16.92;12.00;;;6.30;99.90;;;;;;5095569;28;20580;-82
2022/04/18 02:37:37;;;;;;;15.98;12.55;;;6.30;99.90;;;;;;5095219;28;20227;-82
2022/04/18 02:40:05;;;;;;;17.90;13.70;;;6.30;99.90;;;;;;5094841;28;20205;-83
2022/04/18 02:42:33;;;;;;;14.75;12.32;;;6.30;99.90;;;;;;5091614;28;20213;-82
2022/04/18 02:45:00;;;;;;;18.30;12.18;;;6.30;99.90;;;;;;5094128;28;20643;-83
2022/04/18 02:47:26;;;;;;;19.92;12.60;;;6.20;99.90;;;;;;5093408;28;20226;-83
2022/04/18 02:49:53;;;;;;;17.80;14.13;;;6.20;99.90;;;;;;5092843;28;20200;-82
2022/04/18 02:52:19;;;;;;;20.73;14.45;;;6.20;99.90;;;;;;5095392;28;20187;-81
2022/04/18 02:54:46;;;;;;;16.40;12.93;;;6.20;99.90;;;;;;5095306;28;20211;-81
2022/04/18 02:57:13;;;;;;;20.63;13.10;;;6.20;99.90;;;;;;5094902;28;20227;-82
2022/04/18 02:59:41;;;;;;;18.45;14.13;;;6.10;99.90;;;;;;5085447;28;20237;-84
2022/04/18 03:02:08;;;;;;;17.48;12.93;;;6.10;99.90;;;;;;5085896;28;20231;-83
2022/04/18 03:04:34;;;;;;;18.80;14.68;;;6.00;1.00;;;;;;5086831;28;20226;-83
2022/04/18 03:07:01;;;;;;;17.88;13.38;;;6.10;1.00;;;;;;5087143;28;20253;-83
2022/04/18 03:09:28;;;;;;;23.25;14.90;;;6.10;1.00;;;;;;5092139;28;20214;-82
2022/04/18 03:11:56;;;;;;;19.88;12.90;;;6.00;1.00;;;;;;5098275;28;20260;-83
2022/04/18 03:14:23;;;;;;;16.42;13.40;;;5.90;1.00;;;;;;5094900;28;20201;-83
2022/04/18 03:16:51;;;;;;;15.65;12.63;;;5.90;1.00;;;;;;5086695;28;20281;-83
2022/04/18 03:19:18;;;;;;;21.13;12.45;;;5.90;1.00;;;;;;5087604;28;20218;-83
2022/04/18 03:21:45;;;;;;;14.55;13.02;;;5.90;1.00;;;;;;5087623;28;20238;-83
2022/04/18 03:24:11;;;;;;;15.30;12.70;;;5.90;1.00;;;;;;5085559;28;20573;-83
2022/04/18 03:26:38;;;;;;;16.52;11.43;;;5.90;1.00;;;;;;5085534;28;20227;-83
2022/04/18 03:29:04;;;;;;;16.35;12.02;;;5.80;1.00;;;;;;5093181;28;20207;-83
2022/04/18 03:31:31;;;;;;;17.67;11.50;;;5.80;1.00;;;;;;5093429;28;20210;-82
2022/04/18 03:33:59;;;;;;;15.18;10.90;;;5.90;1.00;;;;;;5088421;28;20237;-83
2022/04/18 03:41:51;;;;;;;13.40;10.27;;;5.70;1.00;;;;;;5086094;28;20223;-84
2022/04/18 03:44:18;;;;;;;15.07;11.80;;;5.60;1.00;;;;;;5084717;28;20585;-84
2022/04/18 03:46:45;;;;;;;16.08;11.20;;;5.60;1.00;;;;;;5084569;28;20252;-83
2022/04/18 03:49:12;;;;;;;18.17;10.90;;;5.70;1.00;;;;;;5083531;28;20518;-84
2022/04/18 03:51:39;;;;;;;12.68;9.93;;;5.60;1.00;;;;;;5084242;28;20204;-83
2022/04/18 03:54:06;;;;;;;14.35;10.10;;;5.60;1.00;;;;;;5089919;28;20186;-83
2022/04/18 03:56:33;;;;;;;13.85;10.35;;;5.60;1.00;;;;;;5098407;28;20234;-83
2022/04/18 03:58:59;;;;;;;12.85;10.65;;;5.60;1.00;;;;;;5094630;28;20223;-83
2022/04/18 04:01:26;;;;;;;13.55;9.55;;;5.50;1.00;;;;;;5084613;28;20545;-83
2022/04/18 04:03:52;;;;;;;12.70;10.05;;;5.60;1.00;;;;;;5083309;28;20507;-83
2022/04/18 04:06:20;;;;;;;14.88;10.93;;;5.60;1.00;;;;;;5083736;28;20218;-83
2022/04/18 04:08:47;;;;;;;13.80;10.80;;;5.60;1.00;;;;;;5083347;28;20199;-83
2022/04/18 04:11:13;;;;;;;17.95;11.05;;;5.60;1.00;;;;;;5083765;28;20214;-83
2022/04/18 04:13:40;;;;;;;14.10;10.65;;;5.60;1.00;;;;;;5084393;28;20203;-81
2022/04/18 04:16:06;;;;;;;14.55;10.85;;;5.60;1.00;;;;;;5096387;28;20243;-82
2022/04/18 04:18:33;;;;;;;16.02;11.05;;;5.60;1.00;;;;;;5097575;28;20218;-81
2022/04/18 04:20:59;;;;;;;19.00;11.43;;;5.50;1.00;;;;;;5095205;28;20210;-84
2022/04/18 04:23:27;;;;;;;18.10;12.15;;;5.60;1.00;;;;;;5087406;28;20202;-84
2022/04/18 04:25:54;;;;;;;17.27;12.50;;;5.50;1.00;;;;;;5086624;28;20219;-82
2022/04/18 04:28:20;;;;;;;19.20;13.02;;;5.50;1.00;;;;;;5091642;28;20213;-82
2022/04/18 04:30:47;;;;;;;24.33;12.57;;;5.60;1.00;;;;;;5082287;28;20241;-82
2022/04/18 04:33:16;;;;;;;15.05;11.23;;;5.60;1.00;;;;;;5076836;28;20237;-82
2022/04/18 04:35:42;;;;;;;15.55;11.90;;;5.50;1.00;;;;;;5077116;28;20457;-82
2022/04/18 04:38:09;;;;;;;15.32;11.77;;;5.50;1.00;;;;;;5078405;28;20238;-82
2022/04/18 04:40:37;;;;;;;17.90;12.48;;;5.50;1.00;;;;;;5080509;28;20240;-82
2022/04/18 04:43:03;;;;;;;16.52;12.27;;;5.50;1.00;;;;;;5080502;28;20289;-83
2022/04/18 04:45:31;;;;;;;16.38;13.05;;;5.60;1.00;;;;;;5080255;28;20206;-82
2022/04/18 04:47:58;;;;;;;17.63;12.30;;;5.40;1.00;;;;;;5081512;28;20277;-82
2022/04/18 04:50:24;;;;;;;15.90;12.70;;;5.40;1.00;;;;;;5082442;28;20198;-82
2022/04/18 04:52:51;;;;;;;20.40;12.90;;;5.50;1.00;;;;;;5082009;28;20198;-84
2022/04/18 04:55:17;;;;;;;16.45;12.48;;;5.50;1.00;;;;;;5082356;28;20331;-82
2022/04/18 04:57:45;;;;;;;19.70;12.82;;;5.50;1.00;;;;;;5082648;28;20662;-83
2022/04/18 05:00:13;;;;;;;18.05;13.02;;;5.50;1.00;;;;;;5082047;28;20317;-83
2022/04/18 05:02:41;;;;;;;18.73;12.50;;;5.60;1.00;;;;;;5082952;28;20209;-83
2022/04/18 05:05:09;;;;;;;18.75;12.35;;;5.60;1.00;;;;;;5081980;28;20213;-83
2022/04/18 05:07:36;;;;;;;16.40;12.52;;;5.70;1.00;;;;;;5086275;28;20237;-83
2022/04/18 05:10:02;;;;;;;20.70;12.05;;;5.80;1.00;;;;;;5096096;28;20230;-82
2022/04/18 05:12:31;;;;;;;20.70;12.85;;;5.70;1.00;;;;;;5096248;28;20198;-82
2022/04/18 05:15:03;;;;;;;17.40;11.68;;;5.70;1.00;;;;;;5096538;28;20190;-82
2022/04/18 05:17:30;;;;;;;16.60;12.70;;;5.70;99.90;;;;;;5094745;28;20223;-83
2022/04/18 05:19:59;;;;;;;19.80;13.68;;;5.70;99.90;;;;;;5093774;28;20233;-82
2022/04/18 05:22:26;;;;;;;16.63;12.55;;;5.80;1.00;;;;;;5090696;28;20237;-84
2022/04/18 05:24:55;;;;;;;19.35;13.45;;;5.80;1.00;;;;;;5084041;28;20245;-84
2022/04/18 05:27:21;;;;;;;15.95;12.15;;;5.80;99.90;;;;;;5083315;28;20226;-83
2022/04/18 05:29:49;;;;;;;20.20;12.65;;;5.90;99.90;;;;;;5086389;28;20206;-83
2022/04/18 05:32:17;;;;;;;17.15;12.60;;;5.90;99.90;;;;;;5097493;28;20217;-81
2022/04/18 05:34:44;;;;;;;14.25;12.02;;;;;;;;;;5097495;28;20254;-81
2022/04/18 05:37:11;;;;;;;17.95;12.15;;;;;;;;;;5096497;28;20219;-83
2022/04/18 05:39:38;;;;;;;16.58;11.52;;;6.10;45.50;;;;;;5091398;28;20219;-83
2022/04/18 05:42:06;;;;;;;15.75;12.40;;;6.20;99.90;;;;;;5086167;28;20217;-84
2022/04/18 05:44:33;;;;;;;18.00;13.20;;;6.20;1.00;;;;;;5083369;28;20217;-83
2022/04/18 05:47:00;;;;;;;22.55;13.48;;;6.30;1.00;;;;;;5082578;28;20219;-82
2022/04/18 05:49:28;;;;;;;14.02;10.88;;;6.30;1.00;;;;;;5083001;28;20195;-83
2022/04/18 05:51:55;;;;;;;16.83;12.00;;;6.50;99.90;;;;;;5082298;28;20218;-84
2022/04/18 05:54:22;;;;;;;19.63;12.23;;;6.40;99.90;;;;;;5082450;28;20570;-83
2022/04/18 05:56:48;;;;;;;15.90;11.35;;;6.50;99.90;;;;;;5128304;22;20210;-82
2022/04/18 05:59:15;;;;;;;20.05;12.00;;;6.40;1.00;;;;;;5139248;28;20218;-82
2022/04/18 06:01:42;;;;;;;18.48;12.00;;;6.50;16.40;;;;;;5135823;28;20228;-84
2022/04/18 06:04:08;;;;;;;16.85;11.77;;;6.50;42.90;;;;;;5131633;28;20222;-84
2022/04/18 06:06:36;;;;;;;17.70;12.00;;;6.60;1.00;;;;;;5123565;28;20228;-85
2022/04/18 06:09:03;;;;;;;16.80;12.23;;;6.70;99.90;;;;;;5123543;28;20206;-84
2022/04/18 06:11:30;;;;;;;17.05;13.00;;;6.80;99.90;;;;;;5130510;28;20476;-85
2022/04/18 06:13:57;;;;;;;15.70;11.23;;;6.80;1.00;;;;;;5129119;28;20232;-84
2022/04/18 06:16:23;;;;;;;15.00;11.23;;;6.90;1.00;;;;;;5129371;28;20268;-84
2022/04/18 06:18:50;;;;;;;16.13;11.20;;;6.80;1.00;;;;;;5128373;28;20215;-84
2022/04/18 06:21:17;;;;;;;14.97;10.80;;;6.80;1.00;;;;;;5126948;28;20203;-84
2022/04/18 06:23:45;;;;;;;18.95;11.80;;;6.90;1.00;;;;;;5123665;28;20460;-84
2022/04/18 06:26:11;;;;;;;14.48;11.48;;;7.20;1.00;;;;;;5122403;28;20730;-85
2022/04/18 06:28:38;;;;;;;13.93;10.23;;;7.20;99.90;;;;;;5123517;28;20199;-83
2022/04/18 06:31:05;;;;;;;18.98;11.15;;;7.20;99.90;;;;;;5124180;28;20470;-83
2022/04/18 06:33:34;;;;;;;19.40;10.98;;;7.20;99.90;;;;;;5129159;28;20186;-84
2022/04/18 06:36:00;;;;;;;13.73;10.40;;;7.40;99.90;;;;;;5138098;28;20202;-83
2022/04/18 06:38:28;;;;;;;16.63;10.70;;;7.30;99.90;;;;;;5139046;28;20259;-84
2022/04/18 06:40:57;;;;;;;14.55;10.40;;;7.40;1.00;;;;;;5142773;28;20436;-83
2022/04/18 06:43:24;;;;;;;17.10;10.73;;;7.40;1.00;;;;;;5143152;28;20226;-82
2022/04/18 06:45:51;;;;;;;12.83;11.10;;;7.40;1.00;;;;;;5142879;28;20430;-81
2022/04/18 06:48:17;;;;;;;14.80;10.48;;;7.60;1.00;;;;;;5143248;28;20430;-82
2022/04/18 06:50:45;;;;;;;11.20;8.70;;;7.60;1.00;;;;;;5143132;28;20187;-81
2022/04/18 06:53:12;;;;;;;15.90;11.20;;;7.70;1.00;;;;;;5135291;28;20432;-83
2022/04/18 06:58:25;;;;;;;18.20;9.03;;;7.70;99.90;;;;;;5128486;28;20442;-84
2022/04/18 07:00:51;;;;;;;19.80;10.47;;;7.90;99.90;;;;;;5140319;28;20488;-83
2022/04/18 07:03:18;;;;;;;15.57;11.93;;;8.00;99.90;;;;;;5141584;28;20522;-82
2022/04/18 07:05:44;;;;;;;14.20;11.77;;;8.10;5.40;;;;;;5141684;28;20443;-81
2022/04/18 07:08:11;;;;;;;17.10;9.13;;;8.50;24.00;;;;;;5142630;28;20450;-82
2022/04/18 07:10:38;;;;;;;9.23;8.00;;;8.40;1.00;;;;;;5138373;28;20506;-85
2022/04/18 07:13:05;;;;;;;9.63;8.63;;;8.30;34.00;;;;;;5132803;28;20447;-84
2022/04/18 07:15:33;;;;;;;12.73;8.50;;;8.50;99.90;;;;;;5131699;28;20490;-84
2022/04/18 07:18:01;;;;;;;11.00;8.60;;;8.60;1.00;;;;;;5130850;28;20455;-84
2022/04/18 07:20:28;;;;;;;14.10;8.83;;;8.70;1.00;;;;;;5129837;28;20482;-85
2022/04/18 07:22:55;;;;;;;10.90;8.83;;;8.80;1.00;;;;;;5128482;28;20492;-85
2022/04/18 07:25:21;;;;;;;11.13;8.07;;;8.70;99.90;;;;;;5122934;28;20421;-85
2022/04/18 07:27:48;;;;;;;9.43;6.73;;;8.90;1.00;;;;;;5127209;28;20458;-83
2022/04/18 07:30:15;;;;;;;8.63;6.93;;;9.10;99.90;;;;;;5128781;28;20461;-85
2022/04/18 07:32:44;;;;;;;9.23;7.20;;;9.10;99.90;;;;;;5126070;28;20450;-85
2022/04/18 07:35:12;;;;;;;8.50;7.60;;;9.10;52.70;;;;;;5131081;28;20402;-84
2022/04/18 07:38:48;;;;;;;6.77;6.17;;;9.20;1.00;;;;;;5129729;28;20466;-84
2022/04/18 07:40:26;;;;;;;8.30;7.27;;;8.90;99.90;;;;;;5132699;28;20490;-84
2022/04/18 07:42:53;;;;;;;9.07;6.97;;;9.30;1.00;;;;;;5129715;28;20447;-84
2022/04/18 07:45:20;;;;;;;8.30;6.37;;;9.50;1.00;;;;;;5127976;28;20451;-84
2022/04/18 07:47:48;;;;;;;7.47;6.37;;;9.40;1.00;;;;;;5129195;28;20512;-84
2022/04/18 07:50:14;;;;;;;7.33;6.20;;;9.50;1.00;;;;;;5137809;28;20437;-85
2022/04/18 07:52:40;;;;;;;8.40;6.60;;;9.50;1.00;;;;;;5138331;28;20444;-84
2022/04/18 07:55:07;;;;;;;8.17;7.00;;;9.60;1.00;;;;;;5129103;28;20469;-84
2022/04/18 07:57:34;;;;;;;8.50;5.93;;;9.60;1.00;;;;;;5127101;28;20789;-84
2022/04/18 08:00:01;;;;;;;7.77;5.70;;;9.70;1.00;;;;;;5127097;28;20537;-84
2022/04/18 08:02:28;;;;;;;8.27;5.83;;;9.90;19.80;;;;;;5125915;28;21002;-84
2022/04/18 08:04:56;;;;;;;7.50;6.33;;;10.00;1.00;;;;;;5126491;28;20426;-85
2022/04/18 08:07:22;;;;;;;7.60;6.23;;;10.00;1.00;;;;;;5128821;28;21011;-84
2022/04/18 08:09:50;;;;;;;9.30;6.13;;;10.00;1.00;;;;;;5124910;28;20410;-84
2022/04/18 08:12:17;;;;;;;7.30;5.43;;;10.00;1.00;;;;;;5129372;28;20443;-84
2022/04/18 08:14:44;;;;;;;5.97;5.35;;;10.00;1.00;;;;;;5125094;28;20449;-84
2022/04/18 08:17:14;;;;;;;10.43;5.97;;;10.00;1.00;;;;;;5126969;28;20247;-85
2022/04/18 08:19:42;;;;;;;6.40;5.63;;;;;;;;;;5129019;28;21028;-85
2022/04/18 08:22:10;;;;;;;8.23;5.50;;;10.10;1.00;;;;;;5125290;28;20461;-84
2022/04/18 08:24:37;;;;;;;6.00;5.10;;;10.20;1.00;;;;;;5123540;28;20841;-84
2022/04/18 08:27:04;;;;;;;6.97;5.30;;;10.30;1.00;;;;;;5128511;28;20474;-84
2022/04/18 08:29:31;;;;;;;6.40;4.90;;;10.60;1.00;;;;;;5121514;28;20941;-84
2022/04/18 08:31:57;;;;;;;5.30;4.67;;;10.60;1.00;;;;;;5122794;28;20451;-84
2022/04/18 08:34:24;;;;;;;6.30;4.90;;;10.60;1.00;;;;;;5130897;28;20443;-85
2022/04/18 08:36:53;;;;;;;5.83;4.57;;;10.70;1.00;;;;;;5126350;28;20471;-84
2022/04/18 08:39:22;;;;;;;4.67;4.17;;;11.00;1.00;;;;;;5133670;28;20439;-84
2022/04/18 08:41:52;;;;;;;5.43;4.30;;;11.20;1.00;;;;;;5134227;28;20450;-85
2022/04/18 08:44:20;;;;;;;5.83;3.93;;;11.40;1.00;;;;;;5126018;28;20454;-84
2022/04/18 08:46:47;;;;;;;5.27;4.17;;;10.80;1.00;;;;;;5127206;28;20463;-84
2022/04/18 08:54:46;;;;;;;3.63;3.33;;;11.30;99.90;;;;;;5136910;28;20414;-86
2022/04/18 08:57:13;;;;;;;4.07;3.70;;;11.40;1.00;;;;;;5135999;28;20457;-84
2022/04/18 08:59:40;;;;;;;3.50;3.20;;;11.40;99.90;;;;;;5137636;28;20474;-84
2022/04/18 09:02:08;;;;;;;4.33;3.90;;;11.30;99.90;;;;;;5138384;28;20542;-84
2022/04/18 09:04:36;;;;;;;4.53;3.37;;;11.40;99.90;;;;;;5138917;28;20478;-85
2022/04/18 09:07:10;;;;;;;5.30;3.40;;;11.60;99.90;;;;;;5139460;28;20467;-84
2022/04/18 09:09:38;;;;;;;3.23;2.93;;;11.60;99.90;;;;;;5139974;28;20450;-83
2022/04/18 09:12:18;;;;;;;5.23;3.20;;;11.90;99.90;;;;;;5140153;28;20468;-83
2022/04/18 09:14:48;;;;;;;3.30;3.00;;;12.10;99.90;;;;;;5139909;28;20447;-82
2022/04/18 09:17:27;;;;;;;3.47;3.17;;;12.00;99.90;;;;;;5139669;28;20451;-82
2022/04/18 09:20:04;;;;;;;3.77;3.40;;;12.20;99.90;;;;;;5139946;28;20518;-82
2022/04/18 09:22:31;;;;;;;12.13;3.13;;;12.00;99.90;;;;;;5139661;28;20503;-83
2022/04/18 09:24:58;;;;;;;3.07;2.87;;;12.10;99.90;;;;;;5138618;28;20477;-84
2022/04/18 09:27:31;;;;;;;3.17;2.93;;;12.20;99.90;;;;;;5137618;28;20498;-83
2022/04/18 09:30:05;;;;;;;4.07;3.13;;;12.00;1.00;;;;;;5137302;28;20439;-85
2022/04/18 09:32:31;;;;;;;4.47;3.40;;;12.30;99.90;;;;;;5131991;28;20465;-84
2022/04/18 09:35:01;;;;;;;4.93;3.30;;;12.30;99.90;;;;;;5128450;28;20513;-85
2022/04/18 09:37:33;;;;;;;8.30;4.27;;;12.30;99.90;;;;;;5128615;28;20531;-85
2022/04/18 09:40:00;;;;;;;4.90;3.67;;;12.20;99.90;;;;;;5135521;28;20462;-84
2022/04/18 09:42:32;;;;;;;3.80;3.50;;;12.20;99.90;;;;;;5126665;28;20481;-86
2022/04/18 09:44:59;;;;;;;3.90;3.50;;;12.10;99.90;;;;;;5124543;28;20427;-86
2022/04/18 09:47:27;;;;;;;4.47;3.10;;;;;;;;;;5122656;28;20474;-84
2022/04/18 09:49:53;;;;;;;5.03;3.50;;;12.30;99.90;;;;;;5122002;28;20892;-85
2022/04/18 09:52:22;;;;;;;6.33;3.43;;;12.40;1.00;;;;;;5130754;28;20439;-84
2022/04/18 09:54:52;;;;;;;4.13;3.73;;;12.40;99.90;;;;;;5126895;28;20838;-85
2022/04/18 09:57:23;;;;;;;4.77;4.30;;;12.20;99.90;;;;;;5125904;28;20514;-85
2022/04/18 09:59:53;;;;;;;3.57;3.27;;;12.40;99.90;;;;;;5127496;28;21063;-85
2022/04/18 10:02:20;;;;;;;3.63;3.33;;;12.40;99.90;;;;;;5131310;28;20453;-84
2022/04/18 10:04:47;;;;;;;6.77;4.17;;;12.80;1.00;;;;;;5138012;28;20512;-83
2022/04/18 10:07:16;;;;;;;6.30;3.67;;;12.60;99.90;;;;;;5138327;28;20486;-83
2022/04/18 10:09:44;;;;;;;4.70;4.30;;;13.10;99.90;;;;;;5136555;28;20878;-86
2022/04/18 10:12:12;;;;;;;6.40;4.57;;;12.70;99.90;;;;;;5133959;28;20447;-85
2022/04/18 10:14:41;;;;;;;5.17;3.37;;;12.70;99.90;;;;;;5134806;28;20435;-85
2022/04/18 10:17:11;;;;;;;5.07;3.40;;;12.40;1.00;;;;;;5133075;28;20918;-85
2022/04/18 10:19:57;;;;;;;10.20;4.07;;;12.70;99.90;;;;;;5134183;28;20442;-85
2022/04/18 10:22:44;;;;;;;4.60;3.47;;;12.60;1.00;;;;;;5126798;28;20543;-85
2022/04/18 10:25:20;;;;;;;3.87;3.53;;;12.70;99.90;;;;;;5135363;28;20439;-85
2022/04/18 10:28:05;;;;;;;4.10;3.70;;;12.70;99.90;;;;;;5137250;28;20501;-85
2022/04/18 10:30:39;;;;;;;4.83;4.33;;;12.90;99.90;;;;;;5137045;28;20419;-85
2022/04/18 10:33:11;;;;;;;4.43;3.73;;;12.70;99.90;;;;;;5134102;28;20455;-85
2022/04/18 10:35:47;;;;;;;5.77;3.90;;;13.10;99.90;;;;;;5134582;28;20419;-84
2022/04/18 10:38:14;;;;;;;4.87;4.40;;;12.90;99.90;;;;;;5136802;28;20450;-86
2022/04/18 10:40:41;;;;;;;5.50;4.13;;;;;;;;;;5135831;28;20501;-85
2022/04/18 10:43:11;;;;;;;3.97;3.63;;;13.10;99.90;;;;;;5138402;28;20427;-85
2022/04/18 10:45:38;;;;;;;7.40;4.57;;;13.30;99.90;;;;;;5138064;28;20477;-86
2022/04/18 10:48:09;;;;;;;3.90;3.60;;;13.10;99.90;;;;;;5137914;28;20500;-84
2022/04/18 10:50:39;;;;;;;4.20;3.20;;;13.50;99.90;;;;;;5137640;28;20419;-85
2022/04/18 10:53:11;;;;;;;3.50;3.00;;;13.40;99.90;;;;;;5137393;28;20451;-85
2022/04/18 10:55:42;;;;;;;5.00;3.30;;;13.20;1.00;;;;;;5136810;28;20517;-86
2022/04/18 10:58:14;;;;;;;3.07;2.83;;;13.40;99.90;;;;;;5135326;28;20478;-86
2022/04/18 11:00:52;;;;;;;3.60;3.30;;;13.60;1.00;;;;;;5134415;28;20546;-86
2022/04/18 11:03:46;;;;;;;2.40;2.30;;;13.50;99.90;;;;;;5129033;28;20949;-85
2022/04/18 11:06:48;;;;;;;2.70;1.90;;;14.20;1.00;;;;;;5125828;28;20458;-85
2022/04/18 11:09:19;;;;;;;4.37;2.40;;;13.90;99.90;;;;;;5135527;28;20431;-86
2022/04/18 11:11:48;;;;;;;2.27;2.07;;;13.80;99.90;;;;;;5132600;28;20413;-85
2022/04/18 11:14:17;;;;;;;2.77;2.37;;;13.90;99.90;;;;;;5122404;28;20457;-86
2022/04/18 11:16:53;;;;;;;4.33;2.40;;;13.60;99.90;;;;;;5125023;28;20463;-85
2022/04/18 11:19:27;;;;;;;2.70;2.03;;;13.70;99.90;;;;;;5121837;28;20438;-85
2022/04/18 11:22:15;;;;;;;4.10;3.17;;;13.70;99.90;;;;;;5137870;28;20433;-85
2022/04/18 11:24:44;;;;;;;2.40;1.90;;;13.80;99.90;;;;;;5138554;28;20433;-85
2022/04/18 11:27:13;;;;;;;3.00;2.40;;;13.70;99.90;;;;;;5132772;28;20482;-85
2022/04/18 11:29:41;;;;;;;3.83;2.30;;;13.90;99.90;;;;;;5133769;28;20461;-85
2022/04/18 11:32:09;;;;;;;1.80;1.70;;;13.90;99.90;;;;;;5136067;28;20539;-85
2022/04/18 11:34:37;;;;;;;2.33;2.13;;;14.20;99.90;;;;;;5134499;28;20511;-85
2022/04/18 11:37:08;;;;;;;2.47;1.60;;;14.20;99.90;;;;;;5137014;28;20445;-85
2022/04/18 11:39:46;;;;;;;2.27;2.07;;;14.00;99.90;;;;;;5139429;28;20453;-85
2022/04/18 11:42:16;;;;;;;2.50;2.30;;;14.00;99.90;;;;;;5139444;28;20484;-85
2022/04/18 11:44:45;;;;;;;2.47;2.27;;;14.10;99.90;;;;;;5135497;28;20458;-85
2022/04/18 11:47:12;;;;;;;2.10;2.00;;;13.90;99.90;;;;;;5134867;28;20909;-85
2022/04/18 11:49:44;;;;;;;2.30;2.10;;;14.10;99.90;;;;;;5133275;28;20435;-86
2022/04/18 11:52:18;;;;;;;2.00;1.90;;;13.90;99.90;;;;;;5134482;28;20442;-85
2022/04/18 11:54:59;;;;;;;2.00;1.90;;;14.10;99.90;;;;;;5133224;28;20786;-84
2022/04/18 11:57:28;;;;;;;3.73;1.80;;;14.20;99.90;;;;;;5133718;28;20512;-85
2022/04/18 11:59:55;;;;;;;2.33;2.13;;;14.20;99.90;;;;;;5133175;28;20500;-85
2022/04/18 12:07:57;;;;;;;4.30;2.37;;;16.00;99.90;;;;;;5135044;28;20474;-84
2022/04/18 12:10:26;;;;;;;3.90;3.43;;;14.10;99.90;;;;;;5136354;28;20436;-85
2022/04/18 12:12:53;;;;;;;3.00;2.70;;;14.00;99.90;;;;;;5139101;28;20522;-84
2022/04/18 12:15:23;;;;;;;2.87;2.07;;;14.10;99.90;;;;;;5139464;28;20945;-85
2022/04/18 12:17:50;;;;;;;3.43;2.60;;;14.10;99.90;;;;;;5139031;28;20511;-84
2022/04/18 12:20:27;;;;;;;3.10;2.80;;;14.20;99.90;;;;;;5136603;28;20481;-85
2022/04/18 12:22:58;;;;;;;2.60;2.40;;;14.00;99.90;;;;;;5132333;28;20419;-85
2022/04/18 12:25:27;;;;;;;3.23;2.53;;;14.00;99.90;;;;;;5129158;28;20432;-85
2022/04/18 12:27:54;;;;;;;2.70;2.50;;;14.20;99.90;;;;;;5124996;28;20804;-84
2022/04/18 12:30:21;;;;;;;2.53;2.33;;;14.20;99.90;;;;;;5122930;28;20444;-85
2022/04/18 12:32:48;;;;;;;5.13;2.30;;;14.40;99.90;;;;;;5123944;28;20926;-84
2022/04/18 12:35:34;;;;;;;2.70;2.50;;;14.50;99.90;;;;;;5121375;28;20444;-85
2022/04/18 12:38:04;;;;;;;4.00;3.07;;;14.70;99.90;;;;;;5126601;28;20474;-85
2022/04/18 12:40:36;;;;;;;4.60;2.37;;;14.80;99.90;;;;;;5138098;28;20435;-85
2022/04/18 12:43:10;;;;;;;3.03;2.33;;;14.60;99.90;;;;;;5127170;28;20455;-84
2022/04/18 12:45:45;;;;;;;5.15;3.47;;;14.50;99.90;;;;;;5126949;28;20431;-86
2022/04/18 12:48:12;;;;;;;8.40;6.60;;;14.60;99.90;;;;;;5127888;28;20238;-86
2022/04/18 12:50:39;;;;;;;2.70;2.30;;;14.80;99.90;;;;;;5125039;28;20424;-85
2022/04/18 12:53:08;;;;;;;3.07;1.63;;;14.70;99.90;;;;;;5122016;28;20476;-85
2022/04/18 12:55:35;;;;;;;2.53;1.83;;;14.60;99.90;;;;;;5125081;28;20441;-85
2022/04/18 12:58:02;;;;;;;1.70;1.60;;;14.50;99.90;;;;;;5135162;28;20480;-86
2022/04/18 13:00:36;;;;;;;3.77;3.50;;;14.50;99.90;;;;;;5131682;28;20477;-86
2022/04/18 13:03:04;;;;;;;5.33;1.83;;;14.50;99.90;;;;;;5125056;28;20445;-87
2022/04/18 13:05:32;;;;;;;3.23;2.13;;;14.70;99.90;;;;;;5126237;28;20501;-86
2022/04/18 13:08:03;;;;;;;2.00;1.77;;;14.60;99.90;;;;;;5126441;28;20452;-86
2022/04/18 13:10:33;;;;;;;2.43;2.23;;;14.70;99.90;;;;;;5132027;28;20437;-86
2022/04/18 13:13:02;;;;;;;13.93;8.87;;;14.60;99.90;;;;;;5138800;28;20431;-85
2022/04/18 13:15:28;;;;;;;6.53;5.80;;;14.80;99.90;;;;;;5139088;28;20445;-83
2022/04/18 13:18:01;;;;;;;2.10;1.87;;;15.00;99.90;;;;;;5139561;28;20452;-83
2022/04/18 13:20:29;;;;;;;4.50;3.70;;;15.00;99.90;;;;;;5139478;28;20475;-84
2022/04/18 13:22:55;;;;;;;5.83;4.40;;;15.00;99.90;;;;;;5134353;28;20431;-86
2022/04/18 13:25:22;;;;;;;8.63;6.30;;;15.30;99.90;;;;;;5126618;28;20593;-86